^^

..:: Storico WU ::..




Lo storico viene creato da WUnderground con i dati che la stazione Meteomincio invia al loro server. L' aggiornamento viene fatto ogni 5 minuti circa, tuttavia possono esserci intervalli pi¨ ampi a causa di errori, interruzioni di servizio o problemi nell' invio tramite FTP.


Storico stazione MeteoMincio
Giorno Sommario per Febbario 05, 2022 Unità:  Inglese    Metrico   Entrambi
Giorno Settimana Mese Anno
  Max: Min: Media:
Temperatura: 52.9 °F 32.7 °F 44.2 °F
Dew Point: 46.4 °F 31.6 °F 41.5 °F
Umidità: 97% 76.3% 90%
Velocità vento: 5.3mph 0mph 1.5mph
Raffica: 8.1mph - -
Direzione- - WSW
Pressione: 30.2 in 30 in -
Precipitazioni: 0 in    
 
 
Tabulato Dati per Febbario 05, 2022
Ora Temperatura Dew Point Pressione Direzione Velocità vento Raffica Umidità Intensità pioggia (oraria) Info solare Situazione
00:04 43.5 °F 41.9 °F 30 in West 1.2 mph 2.3 mph 94% 0 in 0 W/m2
00:09 43.5 °F 41.9 °F 30 in WSW 0.9 mph 2.3 mph 94% 0 in 0 W/m2
00:14 43.5 °F 41.9 °F 30 in WSW 1.1 mph 2.3 mph 94% 0 in 0 W/m2
00:19 43.5 °F 41.9 °F 30 in SW 1.9 mph 3.5 mph 94% 0 in 0 W/m2
00:24 43.3 °F 41.9 °F 30 in SW 1.8 mph 3.5 mph 94% 0 in 0 W/m2
00:29 43.5 °F 41.9 °F 30 in SW 1.5 mph 3.5 mph 94% 0 in 0 W/m2
00:34 43.3 °F 41.7 °F 30 in SW 1.5 mph 3.5 mph 94% 0 in 0 W/m2
00:39 43.2 °F 41.7 °F 30 in SW 1.8 mph 3.5 mph 94.1% 0 in 0 W/m2
00:44 43.3 °F 42.1 °F 30 in SW 1.3 mph 3.5 mph 95% 0 in 0 W/m2
00:49 43.3 °F 41.9 °F 30 in SW 1.7 mph 3.5 mph 94.9% 0 in 0 W/m2
00:54 43.2 °F 41.7 °F 30 in SW 2 mph 3.5 mph 94.1% 0 in 0 W/m2
00:59 43.2 °F 41.9 °F 30 in SW 2 mph 3.5 mph 95% 0 in 0 W/m2
01:04 43.3 °F 41.9 °F 30 in SW 2.1 mph 3.5 mph 95% 0 in 0 W/m2
01:09 43.3 °F 42.1 °F 30 in SW 2.5 mph 4 mph 95% 0 in 0 W/m2
01:14 43.5 °F 42.3 °F 30 in SW 2.1 mph 4 mph 95% 0 in 0 W/m2
01:19 43.3 °F 41.9 °F 30 in WSW 1.7 mph 3.5 mph 94.4% 0 in 0 W/m2
01:24 43.2 °F 41.7 °F 30 in WSW 1.4 mph 3 mph 94% 0 in 0 W/m2
01:29 43.2 °F 41.9 °F 30 in WSW 2.2 mph 3.5 mph 94.8% 0 in 0 W/m2
01:34 43.2 °F 41.9 °F 30 in WSW 1.5 mph 3.5 mph 95% 0 in 0 W/m2
01:39 43.2 °F 41.7 °F 30 in WSW 1.7 mph 3.5 mph 95% 0 in 0 W/m2
01:44 43.2 °F 41.9 °F 30 in WSW 2.2 mph 3.5 mph 95% 0 in 0 W/m2
01:49 43 °F 41.7 °F 30 in WSW 1.7 mph 3.5 mph 95% 0 in 0 W/m2
01:54 43 °F 41.7 °F 30 in WSW 1.8 mph 3 mph 95% 0 in 0 W/m2
01:59 43 °F 41.7 °F 30 in SW 1.7 mph 3.5 mph 95% 0 in 0 W/m2
02:04 43 °F 41.7 °F 30 in SW 1.1 mph 3 mph 95% 0 in 0 W/m2
02:09 43 °F 41.7 °F 30 in SW 1.1 mph 2.3 mph 95% 0 in 0 W/m2
02:14 43.2 °F 41.9 °F 30 in SW 1.2 mph 2.3 mph 95% 0 in 0 W/m2
02:19 43.2 °F 41.7 °F 30 in WSW 1.6 mph 2.3 mph 95% 0 in 0 W/m2
02:24 43 °F 41.7 °F 30 in WSW 2.1 mph 3.5 mph 95% 0 in 0 W/m2
02:29 43.2 °F 41.7 °F 30 in West 2 mph 3.5 mph 95% 0 in 0 W/m2
02:34 43.2 °F 41.7 °F 30 in SW 1.6 mph 3.5 mph 95% 0 in 0 W/m2
02:39 43 °F 41.7 °F 30 in SW 1 mph 3 mph 95% 0 in 0 W/m2
02:44 43 °F 41.7 °F 30 in SW 0.7 mph 2.3 mph 95% 0 in 0 W/m2
02:49 43.2 °F 41.9 °F 30 in SW 1.1 mph 2.3 mph 95% 0 in 0 W/m2
02:54 43.2 °F 41.9 °F 30 in SW 1.9 mph 3.5 mph 95% 0 in 0 W/m2
02:59 43 °F 41.7 °F 30 in WSW 2.1 mph 3.5 mph 95% 0 in 0 W/m2
03:04 43 °F 41.5 °F 30 in WSW 1.6 mph 3.5 mph 95% 0 in 0 W/m2
03:09 42.8 °F 41.5 °F 30 in SW 1.6 mph 3.5 mph 95% 0 in 0 W/m2
03:14 43 °F 41.7 °F 30 in WSW 1.7 mph 3.5 mph 95% 0 in 0 W/m2
03:19 43 °F 41.5 °F 30 in WSW 1.2 mph 3 mph 95% 0 in 0 W/m2
03:24 43 °F 41.7 °F 30 in West 1.3 mph 3.5 mph 95.3% 0 in 0 W/m2
03:29 43.2 °F 42.1 °F 30 in WNW 1.9 mph 3.5 mph 96% 0 in 0 W/m2
03:34 43.2 °F 41.9 °F 30 in WNW 1.5 mph 3.5 mph 95.6% 0 in 0 W/m2
03:39 43.3 °F 42.1 °F 30 in WNW 1.2 mph 2.3 mph 95.5% 0 in 0 W/m2
03:44 43.2 °F 41.9 °F 30 in WNW 0.6 mph 2 mph 95% 0 in 0 W/m2
03:49 43 °F 41.7 °F 30 in WNW 0.8 mph 2.3 mph 95% 0 in 0 W/m2
03:54 42.8 °F 41.5 °F 30 in NNW 1.6 mph 3.5 mph 95.2% 0 in 0 W/m2
03:59 42.8 °F 41.7 °F 30 in North 1.7 mph 4 mph 96% 0 in 0 W/m2
04:04 42.6 °F 41.5 °F 30 in North 2.5 mph 3.5 mph 95.7% 0 in 0 W/m2
04:09 42.6 °F 41.4 °F 30 in NNW 1.6 mph 3.5 mph 95% 0 in 0 W/m2
04:14 42.6 °F 41.4 °F 30 in NNW 1 mph 3 mph 95% 0 in 0 W/m2
04:19 42.6 °F 41.5 °F 30 in NNW 0.1 mph 2.3 mph 95.8% 0 in 0 W/m2
04:24 42.6 °F 41.5 °F 30 in Calm   1 mph 96% 0 in 0 W/m2
04:29 42.4 °F 41.4 °F 30 in Calm     96% 0 in 0 W/m2
04:34 42.3 °F 41 °F 30 in Calm     95.8% 0 in 0 W/m2
04:39 41.9 °F 40.8 °F 30 in Calm     95.3% 0 in 0 W/m2
04:44 41.9 °F 40.8 °F 30 in Calm     96% 0 in 0 W/m2
04:49 42.1 °F 40.8 °F 30 in Calm     96% 0 in 0 W/m2
04:54 42.1 °F 41 °F 30 in Calm     96% 0 in 0 W/m2
04:59 42.1 °F 40.8 °F 30 in Calm     96% 0 in 0 W/m2
05:04 41.9 °F 40.8 °F 30 in Calm   2 mph 96% 0 in 0 W/m2
05:09 41.9 °F 40.8 °F 30 in WSW 1.2 mph 3.5 mph 96% 0 in 0 W/m2
05:14 41.9 °F 40.6 °F 30 in WSW 1.6 mph 3 mph 96% 0 in 0 W/m2
05:19 41.9 °F 40.8 °F 30 in WSW 1.6 mph 3 mph 96% 0 in 0 W/m2
05:24 41.7 °F 40.6 °F 30 in WSW 1.9 mph 3.5 mph 96% 0 in 0 W/m2
05:29 41.9 °F 40.8 °F 30 in WSW 1.9 mph 3.5 mph 96% 0 in 0 W/m2
05:34 42.1 °F 41 °F 30 in WSW 2.1 mph 3.5 mph 96% 0 in 0 W/m2
05:39 42.3 °F 41.2 °F 30 in NNW 1.7 mph 4 mph 96.3% 0 in 0 W/m2
05:44 42.4 °F 41.2 °F 30.1 in NW 1.6 mph 4 mph 96% 0 in 0 W/m2
05:49 42.4 °F 41.4 °F 30.1 in North 1.1 mph 4 mph 96% 0 in 0 W/m2
05:54 42.6 °F 41.4 °F 30.1 in WNW 1.1 mph 3 mph 96% 0 in 0 W/m2
05:59 42.4 °F 41.4 °F 30.1 in WNW 0.4 mph 2.3 mph 96% 0 in 0 W/m2
06:04 42.4 °F 41.4 °F 30.1 in WNW 0.1 mph 2 mph 96% 0 in 0 W/m2
06:09 42.3 °F 41.2 °F 30.1 in WNW 1.1 mph 2.3 mph 96% 0 in 0 W/m2
06:14 42.3 °F 41.2 °F 30.1 in WNW 1.2 mph 3.5 mph 96% 0 in 0 W/m2
06:19 42.4 °F 41.4 °F 30.1 in WNW 1.3 mph 3 mph 96% 0 in 0 W/m2
06:24 42.4 °F 41.4 °F 30.1 in WNW 1.3 mph 3.5 mph 96% 0 in 0 W/m2
06:29 42.3 °F 41.2 °F 30.1 in WNW 0.1 mph 3 mph 96% 0 in 0 W/m2
06:34 42.1 °F 41 °F 30.1 in Calm   1 mph 96% 0 in 0 W/m2
06:39 42.3 °F 41.2 °F 30.1 in NW 1.4 mph 3.5 mph 96% 0 in 0 W/m2
06:44 42.3 °F 41.2 °F 30.1 in NW 1.7 mph 3.5 mph 96% 0 in 0 W/m2
06:49 42.3 °F 41.2 °F 30.1 in WNW 1.6 mph 3.5 mph 96% 0 in 0 W/m2
06:54 42.1 °F 41 °F 30.1 in WNW 1.7 mph 3.5 mph 96% 0 in 0 W/m2
06:59 41.9 °F 40.8 °F 30.1 in WNW 1.2 mph 3 mph 96% 0 in 0 W/m2
07:04 41.9 °F 40.8 °F 30.1 in WSW 1.7 mph 3.5 mph 96.2% 0 in 0 W/m2
07:09 41.7 °F 40.6 °F 30.1 in WSW 2.2 mph 3.5 mph 96% 0 in 0 W/m2
07:14 41.5 °F 40.5 °F 30.1 in WSW 1.2 mph 3 mph 96% 0 in 0 W/m2
07:19 41.5 °F 40.5 °F 30.1 in WSW 1.3 mph 2.3 mph 96% 0 in 0 W/m2
07:24 41.4 °F 40.3 °F 30.1 in West 2.1 mph 3.5 mph 96.1% 0 in 0 W/m2
07:29 41.4 °F 40.5 °F 30.1 in West 1.6 mph 3.5 mph 96.7% 0 in 0 W/m2
07:34 41.4 °F 40.3 °F 30.1 in West 0.9 mph 3 mph 96.2% 0 in 0 W/m2
07:39 41.4 °F 40.6 °F 30.1 in West 0.1 mph 1.2 mph 97% 0 in 0 W/m2
07:44 41.4 °F 40.5 °F 30.1 in Calm   1 mph 96.9% 0 in 0 W/m2
07:49 41.2 °F 40.5 °F 30.1 in Calm     97% 0 in 5 W/m2
07:54 41.2 °F 40.3 °F 30.1 in Calm   1.2 mph 97% 0 in 7 W/m2
07:59 41 °F 40.3 °F 30.1 in Calm   1 mph 97% 0 in 9 W/m2
08:04 41 °F 40.3 °F 30.1 in Calm     97% 0 in 9 W/m2
08:09 41 °F 40.3 °F 30.1 in Calm     97% 0 in 14 W/m2
08:14 41 °F 40.1 °F 30.1 in WSW 1.2 mph 2.3 mph 97% 0 in 21 W/m2
08:19 41 °F 40.3 °F 30.1 in WSW 0.7 mph 2.3 mph 97% 0 in 33 W/m2
08:24 41.2 °F 40.3 °F 30.1 in WSW 0.9 mph 2.3 mph 97% 0 in 39 W/m2
08:29 41.4 °F 40.5 °F 30.1 in WSW 1.4 mph 3.5 mph 97% 0 in 46 W/m2
08:34 41.5 °F 40.8 °F 30.1 in SW 1.7 mph 3.5 mph 97% 0 in 56 W/m2
08:39 41.9 °F 41 °F 30.1 in WSW 1.6 mph 3.5 mph 97% 0 in 56 W/m2
08:44 42.1 °F 41.4 °F 30.1 in SW 1.9 mph 3.5 mph 97% 0 in 74 W/m2
08:49 42.4 °F 41.7 °F 30.1 in WSW 1.8 mph 3.5 mph 97% 0 in 74 W/m2
08:54 42.8 °F 41.9 °F 30.1 in WSW 1.1 mph 3 mph 97% 0 in 51 W/m2
08:59 43 °F 42.3 °F 30.1 in WSW 1.6 mph 3.5 mph 97% 0 in 53 W/m2
09:04 43.3 °F 42.4 °F 30.1 in West 1.9 mph 3.5 mph 97% 0 in 53 W/m2
09:09 43.5 °F 42.6 °F 30.1 in West 1.6 mph 3.5 mph 96.7% 0 in 53 W/m2
09:14 43.9 °F 42.8 °F 30.1 in West 1.9 mph 3.5 mph 96% 0 in 62 W/m2
09:19 44.1 °F 43 °F 30.1 in West 1.2 mph 3.5 mph 96% 0 in 60 W/m2
09:24 44.2 °F 43 °F 30.1 in West 0.9 mph 3 mph 95.3% 0 in 67 W/m2
09:29 44.6 °F 43.3 °F 30.1 in WNW 1.2 mph 2.3 mph 95% 0 in 67 W/m2
09:34 44.8 °F 43.3 °F 30.1 in WNW 1.4 mph 3.5 mph 94.5% 0 in 65 W/m2
09:39 45 °F 43.3 °F 30.1 in WNW 1.2 mph 3.5 mph 94% 0 in 69 W/m2
09:44 45.1 °F 43.5 °F 30.1 in NW 0.8 mph 3 mph 94% 0 in 77 W/m2
09:49 45.5 °F 43.7 °F 30.1 in NW 1 mph 2.3 mph 93.1% 0 in 90 W/m2
09:54 45.9 °F 43.9 °F 30.1 in NNW 1.5 mph 3.5 mph 93% 0 in 90 W/m2
09:59 46 °F 44.1 °F 30.1 in NW 1.7 mph 4 mph 92.9% 0 in 83 W/m2
10:04 46 °F 43.9 °F 30.1 in WNW 1.6 mph 4 mph 92% 0 in 88 W/m2
10:09 46.2 °F 43.9 °F 30.1 in NNW 1.4 mph 3.5 mph 92% 0 in 84 W/m2
10:14 46.4 °F 44.2 °F 30.1 in NNW 0.5 mph 3.5 mph 92% 0 in 77 W/m2
10:19 46.8 °F 44.2 °F 30.1 in NW 1.7 mph 5 mph 90.9% 0 in 83 W/m2
10:24 46.9 °F 43.9 °F 30.1 in NW 0.6 mph 5 mph 89.3% 0 in 88 W/m2
10:29 47.3 °F 44.1 °F 30.1 in WNW 1.2 mph 3.5 mph 88.9% 0 in 91 W/m2
10:34 47.5 °F 44.1 °F 30.1 in NW 1.1 mph 3.5 mph 88% 0 in 104 W/m2
10:39 47.7 °F 44.2 °F 30.1 in NNW 0.9 mph 3 mph 88.2% 0 in 113 W/m2
10:44 47.8 °F 44.4 °F 30.1 in NW 1.2 mph 3.5 mph 88.2% 0 in 120 W/m2
10:49 48 °F 45 °F 30.1 in NW 2.4 mph 4 mph 88.8% 0 in 125 W/m2
10:54 48.2 °F 45.1 °F 30.1 in NW 2.1 mph 4 mph 89% 0 in 130 W/m2
10:59 48.2 °F 45.1 °F 30.1 in WNW 2.1 mph 3.5 mph 89% 0 in 139 W/m2
11:04 48.2 °F 45.1 °F 30.1 in WNW 2 mph 5 mph 89% 0 in 186 W/m2
11:09 48.4 °F 45.3 °F 30.1 in WNW 2.4 mph 4 mph 88.8% 0 in 200 W/m2
11:14 48.6 °F 45.1 °F 30.1 in WNW 2 mph 4 mph 87.8% 0 in 186 W/m2
11:19 48.6 °F 45.1 °F 30.1 in West 1.5 mph 5 mph 87.8% 0 in 190 W/m2
11:24 48.7 °F 45.1 °F 30.1 in WNW 2.7 mph 5 mph 87.2% 0 in 216 W/m2
11:29 48.9 °F 45 °F 30.1 in WNW 3.5 mph 5 mph 86.2% 0 in 274 W/m2
11:34 49.3 °F 45.3 °F 30.1 in WNW 4 mph 6 mph 85.9% 0 in 304 W/m2
11:39 49.5 °F 45.3 °F 30.1 in WNW 3 mph 6 mph 85.4% 0 in 301 W/m2
11:44 49.8 °F 45.1 °F 30.1 in WNW 2.1 mph 6 mph 83.9% 0 in 362 W/m2
11:49 49.8 °F 45.1 °F 30.1 in West 2.1 mph 6 mph 83.8% 0 in 281 W/m2
11:54 49.8 °F 45.3 °F 30.1 in WNW 2.7 mph 6 mph 84.2% 0 in 281 W/m2
11:59 50 °F 45.3 °F 30.1 in West 2.9 mph 6 mph 84% 0 in 360 W/m2
12:04 50.2 °F 45.5 °F 30.1 in West 4.2 mph 6 mph 83.9% 0 in 309 W/m2
12:09 50.2 °F 45.1 °F 30.1 in WSW 3.5 mph 6 mph 82.8% 0 in 283 W/m2
12:14 50.2 °F 45.1 °F 30.1 in West 3 mph 6 mph 82.9% 0 in 264 W/m2
12:19 50 °F 45 °F 30.1 in West 2.1 mph 7 mph 83% 0 in 199 W/m2
12:24 50 °F 44.8 °F 30.1 in WNW 3.5 mph 7 mph 82.2% 0 in 243 W/m2
12:29 50.4 °F 45.3 °F 30.1 in West 3 mph 7 mph 82.4% 0 in 434 W/m2
12:34 50.9 °F 45.5 °F 30.1 in WSW 3.4 mph 6 mph 82% 0 in 434 W/m2
12:39 50.7 °F 45.1 °F 30.1 in WNW 4.2 mph 7 mph 81.3% 0 in 160 W/m2
12:44 50.5 °F 45.1 °F 30.1 in WSW 3.4 mph 7 mph 81.5% 0 in 438 W/m2
12:49 50.9 °F 45.5 °F 30.1 in WNW 2.7 mph 6 mph 81.5% 0 in 464 W/m2
12:54 51.1 °F 45.5 °F 30.1 in WSW 4.1 mph 8.1 mph 80.8% 0 in 323 W/m2
12:59 50.9 °F 45.5 °F 30.1 in WSW 3.5 mph 8 mph 81.8% 0 in 327 W/m2
13:04 51.1 °F 46 °F 30.1 in WSW 3.3 mph 6 mph 82.3% 0 in 394 W/m2
13:09 51.4 °F 46 °F 30.1 in WSW 4.7 mph 8.1 mph 81.6% 0 in 325 W/m2
13:14 51.3 °F 45.9 °F 30.1 in WSW 4.6 mph 8.1 mph 81.7% 0 in 406 W/m2
13:19 51.6 °F 46.4 °F 30.1 in WSW 4 mph 8 mph 82.1% 0 in 448 W/m2
13:24 52.2 °F 46.4 °F 30.1 in WSW 4.8 mph 7 mph 81% 0 in 425 W/m2
13:29 51.8 °F 46 °F 30.1 in WSW 3.5 mph 7 mph 80.3% 0 in 406 W/m2
13:34 52 °F 46.2 °F 30.1 in WSW 3.8 mph 7 mph 80.5% 0 in 357 W/m2
13:39 51.6 °F 45.7 °F 30.1 in West 3.3 mph 6.9 mph 80.1% 0 in 352 W/m2
13:44 51.8 °F 46 °F 30.1 in WSW 3.9 mph 7 mph 80.5% 0 in 352 W/m2
13:49 51.4 °F 45.5 °F 30.1 in West 1.5 mph 7 mph 80.3% 0 in 258 W/m2
13:54 51.4 °F 45.7 °F 30.1 in NNW 0.4 mph 5 mph 80.5% 0 in 394 W/m2
13:59 51.8 °F 45.7 °F 30.1 in East 0.9 mph 2.3 mph 79.6% 0 in 387 W/m2
14:04 52.2 °F 45.7 °F 30.1 in East 0.9 mph 2.3 mph 78.7% 0 in 367 W/m2
14:09 52.5 °F 46 °F 30.1 in WNW 1.7 mph 4 mph 78.5% 0 in 408 W/m2
14:14 52.9 °F 46.2 °F 30.1 in WSW 4.5 mph 8 mph 78.1% 0 in 418 W/m2
14:19 52.5 °F 46 °F 30.1 in WSW 5.3 mph 8.1 mph 78.3% 0 in 418 W/m2
14:24 52.9 °F 46.2 °F 30.1 in WSW 3 mph 8 mph 78.2% 0 in 346 W/m2
14:29 52.5 °F 45.9 °F 30.1 in SW 1.3 mph 5 mph 77.8% 0 in 318 W/m2
14:34 52.5 °F 45.9 °F 30.1 in NW 1 mph 2.3 mph 78% 0 in 330 W/m2
14:39 52.3 °F 45.9 °F 30.1 in NNE 0.6 mph 2.3 mph 78.2% 0 in 315 W/m2
14:44 52.5 °F 45.9 °F 30.1 in West 1.3 mph 5 mph 78% 0 in 287 W/m2
14:49 52.9 °F 46 °F 30.1 in SSW 2.6 mph 5 mph 77.6% 0 in 290 W/m2
14:54 52.7 °F 45.9 °F 30.1 in SSW 2.1 mph 5 mph 77.5% 0 in 290 W/m2
14:59 52.7 °F 45.7 °F 30.1 in WSW 2.2 mph 4 mph 77% 0 in 244 W/m2
15:04 52.3 °F 45.5 °F 30.1 in SW 2.5 mph 5 mph 77.4% 0 in 178 W/m2
15:09 52.7 °F 46 °F 30.1 in WSW 3.2 mph 5 mph 78% 0 in 221 W/m2
15:14 52.9 °F 45.9 °F 30.1 in West 2.6 mph 5 mph 76.8% 0 in 227 W/m2
15:19 52.9 °F 45.9 °F 30.1 in SW 2.3 mph 4 mph 76.9% 0 in 225 W/m2
15:24 52.7 °F 45.7 °F 30.1 in WSW 3 mph 5 mph 77% 0 in 218 W/m2
15:29 52.7 °F 45.7 °F 30.1 in WSW 2.8 mph 5 mph 77% 0 in 213 W/m2
15:34 52.7 °F 45.7 °F 30.1 in SW 2.3 mph 5 mph 77% 0 in 192 W/m2
15:39 52.7 °F 45.7 °F 30.1 in SW 2.4 mph 5 mph 77% 0 in 192 W/m2
15:44 52.9 °F 45.7 °F 30.1 in WSW 2 mph 5 mph 76.5% 0 in 178 W/m2
15:49 52.7 °F 45.7 °F 30.1 in WSW 1.6 mph 5 mph 76.7% 0 in 171 W/m2
15:54 52.7 °F 45.3 °F 30.1 in SW 1.9 mph 5 mph 76.3% 0 in 153 W/m2
15:59 52.7 °F 45.5 °F 30.1 in SW 1.6 mph 4 mph 76.7% 0 in 142 W/m2
16:04 52.7 °F 45.7 °F 30.1 in SW 2.8 mph 5 mph 77% 0 in 135 W/m2
16:09 52.5 °F 45.7 °F 30.1 in WSW 2.7 mph 5 mph 77.2% 0 in 130 W/m2
16:14 52.5 °F 45.7 °F 30.1 in WSW 2.6 mph 4 mph 77.8% 0 in 120 W/m2
16:19 52.3 °F 45.9 °F 30.1 in WSW 2.7 mph 5 mph 78.5% 0 in 105 W/m2
16:24 52.3 °F 45.9 °F 30.1 in WSW 2.3 mph 5 mph 78.7% 0 in 91 W/m2
16:29 52.2 °F 45.9 °F 30.1 in SW 2.2 mph 4 mph 79% 0 in 83 W/m2
16:34 52 °F 45.7 °F 30.1 in SW 2.7 mph 4 mph 79% 0 in 72 W/m2
16:39 51.8 °F 45.7 °F 30.1 in WSW 2.2 mph 4 mph 79.1% 0 in 56 W/m2
16:44 51.6 °F 45.5 °F 30.1 in WSW 2.9 mph 4 mph 79.8% 0 in 49 W/m2
16:49 51.1 °F 45.3 °F 30.1 in SW 2.1 mph 4 mph 80.5% 0 in 42 W/m2
16:54 51.1 °F 45.5 °F 30.1 in SW 1.7 mph 4 mph 81% 0 in 37 W/m2
16:59 50.9 °F 45.3 °F 30.2 in SW 1.6 mph 3.5 mph 81% 0 in 32 W/m2
17:04 50.7 °F 45.1 °F 30.2 in SW 1.5 mph 3.5 mph 81.1% 0 in 26 W/m2
17:09 50.5 °F 45.1 °F 30.2 in SW 1.5 mph 3.5 mph 81.8% 0 in 21 W/m2
17:14 50.2 °F 45 °F 30.2 in SW 1.8 mph 3.5 mph 82% 0 in 16 W/m2
17:19 49.8 °F 44.8 °F 30.2 in SSW 3 mph 6 mph 82.6% 0 in 12 W/m2
17:24 49.5 °F 44.6 °F 30.2 in SSW 2.9 mph 6 mph 83.1% 0 in 7 W/m2
17:29 49.3 °F 44.6 °F 30.2 in SSW 3.2 mph 5 mph 84% 0 in 0 W/m2
17:34 49.1 °F 44.4 °F 30.2 in SSW 2.9 mph 5 mph 84% 0 in 0 W/m2
17:39 48.6 °F 44.2 °F 30.2 in SW 2.9 mph 5 mph 84.6% 0 in 0 W/m2
17:44 48.2 °F 43.9 °F 30.2 in SW 2.6 mph 5 mph 85.3% 0 in 0 W/m2
17:49 47.7 °F 43.7 °F 30.2 in SW 1.9 mph 5 mph 86% 0 in 0 W/m2
17:54 47.5 °F 43.7 °F 30.2 in SW 2.5 mph 5 mph 86.8% 0 in 0 W/m2
17:59 46.9 °F 43.3 °F 30.2 in SW 2.2 mph 5 mph 87% 0 in 0 W/m2
18:04 46.6 °F 43.2 °F 30.2 in SW 1.9 mph 3.5 mph 87.9% 0 in 0 W/m2
18:09 46.2 °F 42.8 °F 30.2 in SW 1.4 mph 3.5 mph 88% 0 in 0 W/m2
18:14 45.7 °F 42.4 °F 30.2 in WSW 2 mph 3.5 mph 88.4% 0 in 0 W/m2
18:19 45.1 °F 42.1 °F 30.2 in WSW 2 mph 3.5 mph 89% 0 in 0 W/m2
18:24 44.4 °F 41.7 °F 30.2 in West 1.5 mph 3 mph 89.7% 0 in 0 W/m2
18:29 44.4 °F 41.7 °F 30.2 in WNW 2 mph 3.5 mph 90.3% 0 in 0 W/m2
18:34 44.4 °F 41.9 °F 30.2 in WNW 2.2 mph 4 mph 91% 0 in 0 W/m2
18:39 44.6 °F 41.9 °F 30.2 in West 1.4 mph 4 mph 90.3% 0 in 0 W/m2
18:44 43.7 °F 40.8 °F 30.2 in West 1.4 mph 3 mph 89.4% 0 in 0 W/m2
18:49 42.8 °F 40.3 °F 30.2 in SW 1.4 mph 3.5 mph 90.4% 0 in 0 W/m2
18:54 42.8 °F 40.5 °F 30.2 in SW 1.3 mph 3 mph 91% 0 in 0 W/m2
18:59 42.6 °F 40.3 °F 30.2 in SW 1.8 mph 3.5 mph 91.2% 0 in 0 W/m2
19:04 42.4 °F 40.3 °F 30.2 in SW 0.4 mph 3 mph 92% 0 in 0 W/m2
19:09 42.3 °F 40.1 °F 30.2 in SW 0.7 mph 2.3 mph 92% 0 in 0 W/m2
19:14 42.4 °F 40.3 °F 30.2 in SW 1.4 mph 2.3 mph 92% 0 in 0 W/m2
19:19 42.4 °F 40.3 °F 30.2 in SW 1.4 mph 2.3 mph 92% 0 in 0 W/m2
19:24 42.4 °F 40.1 °F 30.2 in SW 1.6 mph 2.3 mph 92% 0 in 0 W/m2
19:29 42.3 °F 39.9 °F 30.2 in SW 1.6 mph 3.5 mph 92% 0 in 0 W/m2
19:34 42.1 °F 39.9 °F 30.2 in SW 1.2 mph 2.3 mph 92% 0 in 0 W/m2
19:39 41.9 °F 39.7 °F 30.2 in SW 0.8 mph 2.3 mph 92% 0 in 0 W/m2
19:44 41.9 °F 39.7 °F 30.2 in WSW 1.2 mph 2.3 mph 92.5% 0 in 0 W/m2
19:49 41.7 °F 39.9 °F 30.2 in WSW 0.7 mph 2.3 mph 93% 0 in 0 W/m2
19:54 41.7 °F 39.7 °F 30.2 in WSW 0.5 mph 2 mph 93% 0 in 0 W/m2
19:59 41.5 °F 39.7 °F 30.2 in Calm   1 mph 93% 0 in 0 W/m2
20:04 41.4 °F 39.4 °F 30.2 in Calm     93% 0 in 0 W/m2
20:09 40.8 °F 39 °F 30.2 in Calm     93% 0 in 0 W/m2
20:14 40.6 °F 38.7 °F 30.2 in Calm     93% 0 in 0 W/m2
20:19 40.5 °F 38.5 °F 30.2 in Calm     93% 0 in 0 W/m2
20:24 40.3 °F 38.5 °F 30.2 in Calm     93% 0 in 0 W/m2
20:29 40.3 °F 38.3 °F 30.2 in Calm     92.9% 0 in 0 W/m2
20:34 39.6 °F 37.6 °F 30.2 in Calm     92.6% 0 in 0 W/m2
20:39 39.6 °F 37.9 °F 30.2 in Calm     93.8% 0 in 0 W/m2
20:44 39.7 °F 37.9 °F 30.2 in Calm     93.7% 0 in 0 W/m2
20:49 39.6 °F 37.6 °F 30.2 in Calm     93% 0 in 0 W/m2
20:54 39 °F 37 °F 30.2 in Calm     93% 0 in 0 W/m2
20:59 38.5 °F 36.7 °F 30.2 in Calm     93% 0 in 0 W/m2
21:04 38.3 °F 36.5 °F 30.2 in Calm     93% 0 in 0 W/m2
21:09 38.3 °F 36.5 °F 30.2 in Calm     93% 0 in 0 W/m2
21:14 37.8 °F 36 °F 30.2 in Calm     93% 0 in 0 W/m2
21:19 37.2 °F 35.4 °F 30.2 in Calm     92.9% 0 in 0 W/m2
21:24 36.9 °F 35.1 °F 30.2 in Calm     93% 0 in 0 W/m2
21:29 36.9 °F 35.1 °F 30.2 in Calm     93.5% 0 in 0 W/m2
21:34 36.9 °F 35.2 °F 30.2 in Calm     94% 0 in 0 W/m2
21:39 36.7 °F 35.1 °F 30.2 in Calm     94% 0 in 0 W/m2
21:44 36.5 °F 34.9 °F 30.2 in NNW 1.2 mph 3.5 mph 94.2% 0 in 0 W/m2
21:49 36.9 °F 35.6 °F 30.2 in NNW 1.4 mph 3 mph 95% 0 in 0 W/m2
21:54 36.9 °F 35.2 °F 30.2 in NNW 0.3 mph 2 mph 94.1% 0 in 0 W/m2
21:59 36 °F 34.2 °F 30.2 in NNW 0.3 mph 1.2 mph 93% 0 in 0 W/m2
22:04 35.6 °F 33.8 °F 30.2 in Calm   1 mph 93% 0 in 0 W/m2
22:09 35.4 °F 33.6 °F 30.2 in NNW 0.9 mph 2.3 mph 93.4% 0 in 0 W/m2
22:14 35.4 °F 33.8 °F 30.2 in NNW 0.4 mph 2.3 mph 94% 0 in 0 W/m2
22:19 35.1 °F 33.3 °F 30.2 in Calm   2 mph 93.2% 0 in 0 W/m2
22:24 35.1 °F 33.3 °F 30.2 in Calm     93.8% 0 in 0 W/m2
22:29 35.2 °F 33.6 °F 30.2 in Calm     94% 0 in 0 W/m2
22:34 35.1 °F 33.3 °F 30.2 in Calm     93.2% 0 in 0 W/m2
22:39 34.5 °F 32.7 °F 30.2 in Calm     93% 0 in 0 W/m2
22:44 34.2 °F 32.4 °F 30.2 in Calm     93% 0 in 0 W/m2
22:49 34 °F 32.5 °F 30.2 in Calm     93.9% 0 in 0 W/m2
22:54 33.8 °F 32.4 °F 30.2 in Calm     94% 0 in 0 W/m2
22:59 33.3 °F 31.6 °F 30.2 in Calm     93.9% 0 in 0 W/m2
23:04 33.3 °F 32 °F 30.2 in Calm     94.6% 0 in 0 W/m2
23:09 33.4 °F 32 °F 30.2 in Calm     95% 0 in 0 W/m2
23:14 33.3 °F 32 °F 30.2 in Calm     95% 0 in 0 W/m2
23:19 33.4 °F 32.2 °F 30.2 in Calm     95.5% 0 in 0 W/m2
23:24 33.1 °F 32 °F 30.2 in WSW 0.4 mph 2.3 mph 95.7% 0 in 0 W/m2
23:29 32.9 °F 31.8 °F 30.2 in WSW 1.7 mph 2.3 mph 96% 0 in 0 W/m2
23:34 33.3 °F 32.2 °F 30.2 in WSW 1.1 mph 2.3 mph 96% 0 in 0 W/m2
23:39 33.6 °F 32.5 °F 30.2 in WSW 1.4 mph 2.3 mph 96% 0 in 0 W/m2
23:44 33.3 °F 32.2 °F 30.2 in WSW 1.7 mph 3 mph 96% 0 in 0 W/m2
23:49 32.9 °F 31.8 °F 30.2 in WSW 1.6 mph 3.5 mph 96% 0 in 0 W/m2
23:54 32.7 °F 31.6 °F 30.2 in WSW 1.1 mph 3 mph 96% 0 in 0 W/m2
23:59 32.7 °F 31.6 °F 30.2 in WSW 0.9 mph 2.3 mph 96% 0 in 0 W/m2
Stazione Meteorologica MeteoMincio Rivalta s/M (MN)
Con i complimenti di Weather Underground - 4 mb


METEO PILLOLE
Maggior quantità di pioggia caduta in 12 mesi
Cherrapunji (1313 m) - India
tra il 1 agosto 1860 e il 31 luglio 1861 sono caduti 26466.8 mm .

Do NOT follow this link or you will be banned from the site!